Fargo, North Dakota
Current Conditions -  °F | °C
As of 5:53 PM on Sunday 25 Jan 2015 (Local Time) from KFAR Reporting Station
Overcast Overcast  
Wind Chill: -7°   Ceiling: 2300
Heat Index: -3°   Visibility: 10mi
Dew Point: -8°   Wind: 6mph
Humidity: 69%   Direction: 180°S
Pressure: 29.99"   Gusts: NA
Location:  46.88°N, 96.78°W
Report Text: KFAR 252353Z 18005KT 10SM OVC023 M03/M08 A2999 RMK AO2 SLP172 T10331083 11028 21044 56008
Loading
Personal Weather Stations






























Interactive Weather Map New forecast layout! Learn more

10-Day Weather Forecast

Advertisements
Track Severe Weather on mobile